Flight Track Log - Related Links

Times and Time Zones

All times are in EDT time to prevent confusion due to time zone crossing. See the CSN6813 flight status page for this flight to view local times or setup timezone preferences in your user account.


Time Position Orientation Groundspeed Altitude Reporting Facility
EDT Latitude Longitude Course Direction KTS MPH feet Rate Location/Type
Sun 04:26:00 AM 43.8099 87.3503 223° Southwest  Level Estimated
Sun 04:27:00 AM 43.7126 87.2267 223° Southwest  Level Estimated
Sun 04:28:00 AM 43.6152 87.1035 222° Southwest  Level Estimated
Sun 04:29:00 AM 43.5177 86.9808 222° Southwest  Level Estimated
Sun 04:30:00 AM 43.4199 86.8584 222° Southwest  Level Estimated
Sun 04:31:00 AM 43.3221 86.7364 222° Southwest  Level Estimated
Sun 04:32:00 AM 43.2242 86.6148 222° Southwest  Level Estimated
Sun 04:33:00 AM 43.1261 86.4936 222° Southwest  Level Estimated
Sun 04:34:00 AM 43.0279 86.3728 222° Southwest  Level Estimated
Sun 04:35:00 AM 42.9295 86.2524 222° Southwest  Level Estimated
Sun 04:36:00 AM 42.8311 86.1323 222° Southwest  Level Estimated
Sun 04:37:00 AM 42.7325 86.0127 222° Southwest  Level Estimated
Sun 04:38:00 AM 42.6338 85.8934 222° Southwest  Level Estimated
Sun 04:39:00 AM 42.5349 85.7745 222° Southwest  Level Estimated
Sun 04:40:00 AM 42.4360 85.6560 221° Southwest  Level Estimated
Sun 04:41:00 AM 42.3369 85.5378 221° Southwest  Level Estimated
Sun 04:42:00 AM 42.2377 85.4200 221° Southwest  Level Estimated
Sun 04:43:00 AM 42.1384 85.3026 221° Southwest  Level Estimated
Sun 04:44:00 AM 42.0389 85.1856 221° Southwest  Level Estimated
Sun 04:45:00 AM 41.9394 85.0689 221° Southwest  Level Estimated
Sun 04:46:00 AM 41.8397 84.9526 221° Southwest  Level Estimated
Sun 04:47:00 AM 41.7399 84.8366 221° Southwest  Level Estimated
Sun 04:48:00 AM 41.6400 84.7210 221° Southwest  Level Estimated
Sun 04:49:00 AM 41.5400 84.6058 221° Southwest  Level Estimated
Sun 04:50:00 AM 41.4398 84.4909 221° Southwest  Level Estimated
Sun 04:51:00 AM 41.3396 84.3764 221° Southwest  Level Estimated
Sun 04:52:00 AM 41.2392 84.2623 221° Southwest  Level Estimated
Sun 04:53:00 AM 41.1387 84.1484 220° Southwest  Level Estimated
Sun 04:54:00 AM 41.0381 84.0350 220° Southwest  Level Estimated
Sun 04:55:00 AM 40.9374 83.9218 220° Southwest  Level Estimated
Sun 04:56:00 AM 40.8366 83.8091 220° Southwest  Level Estimated
Sun 04:57:00 AM 40.7357 83.6966 220° Southwest  Level Estimated
Sun 04:58:00 AM 40.6347 83.5845 220° Southwest  Level Estimated
Sun 04:59:00 AM 40.5335 83.4728 220° Southwest  Level Estimated
Sun 05:00:00 AM 40.4323 83.3613 220° Southwest  Level Estimated
Sun 05:01:00 AM 40.3309 83.2503 220° Southwest  Level Estimated
Sun 05:02:00 AM 40.2295 83.1395 220° Southwest  Level Estimated
Sun 05:03:00 AM 40.1279 83.0291 220° Southwest  Level Estimated
Sun 05:04:00 AM 40.0262 82.9190 220° Southwest  Level Estimated
Sun 05:05:00 AM 39.9245 82.8092 220° Southwest  Level Estimated
Sun 05:06:00 AM 39.8226 82.6998 220° Southwest  Level Estimated
Sun 05:07:00 AM 39.7206 82.5907 219° Southwest  Level Estimated
Sun 05:08:00 AM 39.6185 82.4819 219° Southwest  Level Estimated
Sun 05:09:00 AM 39.5164 82.3734 219° Southwest  Level Estimated
Sun 05:10:00 AM 39.4141 82.2653 219° Southwest  Level Estimated
Sun 05:11:00 AM 39.3117 82.1574 219° Southwest  Level Estimated
Sun 05:12:00 AM 39.2092 82.0499 219° Southwest  Level Estimated
Sun 05:13:00 AM 39.1066 81.9427 219° Southwest  Level Estimated
Sun 05:14:00 AM 39.0040 81.8358 219° Southwest  Level Estimated
Sun 05:15:00 AM 38.9012 81.7293 219° Southwest  Level Estimated
Sun 05:16:00 AM 38.7983 81.6230 219° Southwest  Level Estimated
Sun 05:17:00 AM 38.6954 81.5170 219° Southwest  Level Estimated
Sun 05:18:00 AM 38.5923 81.4114 219° Southwest  Level Estimated
Sun 05:19:00 AM 38.4891 81.3060 219° Southwest  Level Estimated
Sun 05:20:00 AM 38.3859 81.2009 219° Southwest  Level Estimated
Sun 05:21:00 AM 38.2825 81.0962 219° Southwest  Level Estimated
Sun 05:22:00 AM 38.1791 80.9917 218° Southwest  Level Estimated
Sun 05:23:00 AM 38.0756 80.8876 218° Southwest  Level Estimated
Sun 05:24:00 AM 37.9720 80.7837 218° Southwest  Level Estimated
Sun 05:25:00 AM 37.8682 80.6801 218° Southwest  Level Estimated
Sun 05:26:00 AM 37.7644 80.5768 218° Southwest  Level Estimated
Sun 05:27:00 AM 37.6605 80.4738 218° Southwest  Level Estimated
Sun 05:28:00 AM 37.5566 80.3711 218° Southwest  Level Estimated
Sun 05:29:00 AM 37.4525 80.2687 218° Southwest  Level Estimated
Sun 05:30:00 AM 37.3483 80.1666 218° Southwest  Level Estimated

Login

Don't have an account? Register now (free) for customized features, flight alerts, and more!